sensor_id;sensor_type;location;lat;lon;timestamp;P1;durP1;ratioP1;P2;durP2;ratioP2
75456;SDS011;64036;48.266;14.192;2022-11-22T00:02:20;6.30;;;3.10;;
75456;SDS011;64036;48.266;14.192;2022-11-22T00:04:46;6.00;;;2.80;;
75456;SDS011;64036;48.266;14.192;2022-11-22T00:07:11;6.80;;;3.10;;
75456;SDS011;64036;48.266;14.192;2022-11-22T00:09:37;5.20;;;2.60;;
75456;SDS011;64036;48.266;14.192;2022-11-22T00:12:03;3.60;;;2.40;;
75456;SDS011;64036;48.266;14.192;2022-11-22T00:14:28;6.40;;;2.50;;
75456;SDS011;64036;48.266;14.192;2022-11-22T00:16:54;4.90;;;2.50;;
75456;SDS011;64036;48.266;14.192;2022-11-22T00:19:20;2.90;;;2.00;;
75456;SDS011;64036;48.266;14.192;2022-11-22T00:21:45;3.00;;;2.20;;
75456;SDS011;64036;48.266;14.192;2022-11-22T00:24:12;7.40;;;3.00;;
75456;SDS011;64036;48.266;14.192;2022-11-22T00:26:38;4.10;;;2.60;;
75456;SDS011;64036;48.266;14.192;2022-11-22T00:29:03;5.00;;;2.50;;
75456;SDS011;64036;48.266;14.192;2022-11-22T00:31:29;5.90;;;3.00;;
75456;SDS011;64036;48.266;14.192;2022-11-22T00:33:55;3.80;;;2.50;;
75456;SDS011;64036;48.266;14.192;2022-11-22T00:36:21;4.80;;;2.80;;
75456;SDS011;64036;48.266;14.192;2022-11-22T00:38:47;4.00;;;2.50;;
75456;SDS011;64036;48.266;14.192;2022-11-22T00:41:13;4.40;;;2.40;;
75456;SDS011;64036;48.266;14.192;2022-11-22T00:43:39;5.00;;;2.80;;
75456;SDS011;64036;48.266;14.192;2022-11-22T00:46:04;7.00;;;2.70;;
75456;SDS011;64036;48.266;14.192;2022-11-22T00:48:30;4.70;;;2.80;;
75456;SDS011;64036;48.266;14.192;2022-11-22T00:50:56;4.10;;;2.40;;
75456;SDS011;64036;48.266;14.192;2022-11-22T00:53:22;3.90;;;2.50;;
75456;SDS011;64036;48.266;14.192;2022-11-22T00:55:48;3.50;;;2.40;;
75456;SDS011;64036;48.266;14.192;2022-11-22T00:58:14;6.00;;;3.00;;
75456;SDS011;64036;48.266;14.192;2022-11-22T01:00:39;3.80;;;2.20;;
75456;SDS011;64036;48.266;14.192;2022-11-22T01:03:05;3.70;;;2.30;;
75456;SDS011;64036;48.266;14.192;2022-11-22T01:05:31;4.50;;;2.80;;
75456;SDS011;64036;48.266;14.192;2022-11-22T01:07:57;4.60;;;2.80;;
75456;SDS011;64036;48.266;14.192;2022-11-22T01:10:23;7.30;;;3.40;;
75456;SDS011;64036;48.266;14.192;2022-11-22T01:12:48;5.90;;;3.20;;
75456;SDS011;64036;48.266;14.192;2022-11-22T01:15:14;6.00;;;3.30;;
75456;SDS011;64036;48.266;14.192;2022-11-22T01:17:40;3.00;;;2.00;;
75456;SDS011;64036;48.266;14.192;2022-11-22T01:20:06;4.60;;;2.80;;
75456;SDS011;64036;48.266;14.192;2022-11-22T01:22:33;5.60;;;3.20;;
75456;SDS011;64036;48.266;14.192;2022-11-22T01:24:58;6.50;;;3.00;;
75456;SDS011;64036;48.266;14.192;2022-11-22T01:27:24;5.60;;;3.10;;
75456;SDS011;64036;48.266;14.192;2022-11-22T01:29:50;5.00;;;3.20;;
75456;SDS011;64036;48.266;14.192;2022-11-22T01:32:15;5.50;;;3.20;;
75456;SDS011;64036;48.266;14.192;2022-11-22T01:34:41;4.80;;;3.10;;
75456;SDS011;64036;48.266;14.192;2022-11-22T01:37:06;8.10;;;3.20;;
75456;SDS011;64036;48.266;14.192;2022-11-22T01:39:32;7.20;;;3.80;;
75456;SDS011;64036;48.266;14.192;2022-11-22T01:41:57;7.80;;;4.00;;
75456;SDS011;64036;48.266;14.192;2022-11-22T01:44:28;6.20;;;3.80;;
75456;SDS011;64036;48.266;14.192;2022-11-22T01:46:58;8.30;;;3.00;;
75456;SDS011;64036;48.266;14.192;2022-11-22T01:49:27;5.00;;;2.50;;
75456;SDS011;64036;48.266;14.192;2022-11-22T01:51:57;5.90;;;3.70;;
75456;SDS011;64036;48.266;14.192;2022-11-22T01:54:29;5.70;;;3.50;;
75456;SDS011;64036;48.266;14.192;2022-11-22T01:57:01;5.80;;;3.20;;
75456;SDS011;64036;48.266;14.192;2022-11-22T01:59:32;4.50;;;2.70;;
75456;SDS011;64036;48.266;14.192;2022-11-22T02:01:59;5.10;;;2.90;;
75456;SDS011;64036;48.266;14.192;2022-11-22T02:04:27;8.50;;;3.70;;
75456;SDS011;64036;48.266;14.192;2022-11-22T02:07:00;6.80;;;3.40;;
75456;SDS011;64036;48.266;14.192;2022-11-22T02:09:31;5.20;;;3.50;;
75456;SDS011;64036;48.266;14.192;2022-11-22T02:12:00;5.90;;;3.70;;
75456;SDS011;64036;48.266;14.192;2022-11-22T02:14:28;5.90;;;3.50;;
75456;SDS011;64036;48.266;14.192;2022-11-22T02:16:55;6.70;;;3.90;;
75456;SDS011;64036;48.266;14.192;2022-11-22T02:27:45;6.30;;;3.50;;
75456;SDS011;64036;48.266;14.192;2022-11-22T02:30:12;4.20;;;2.60;;
75456;SDS011;64036;48.266;14.192;2022-11-22T02:32:38;4.50;;;2.70;;
75456;SDS011;64036;48.266;14.192;2022-11-22T02:35:23;5.70;;;3.20;;
75456;SDS011;64036;48.266;14.192;2022-11-22T02:37:55;4.80;;;3.00;;
75456;SDS011;64036;48.266;14.192;2022-11-22T02:40:23;4.70;;;2.90;;
75456;SDS011;64036;48.266;14.192;2022-11-22T02:42:54;4.70;;;2.70;;
75456;SDS011;64036;48.266;14.192;2022-11-22T02:45:28;7.10;;;2.90;;
75456;SDS011;64036;48.266;14.192;2022-11-22T02:48:07;3.60;;;2.30;;
75456;SDS011;64036;48.266;14.192;2022-11-22T02:50:37;5.90;;;3.30;;
75456;SDS011;64036;48.266;14.192;2022-11-22T02:53:03;6.00;;;3.30;;
75456;SDS011;64036;48.266;14.192;2022-11-22T02:55:30;5.70;;;3.40;;
75456;SDS011;64036;48.266;14.192;2022-11-22T02:57:56;4.00;;;2.50;;
75456;SDS011;64036;48.266;14.192;2022-11-22T03:00:22;6.10;;;3.70;;
75456;SDS011;64036;48.266;14.192;2022-11-22T03:02:48;4.60;;;2.60;;
75456;SDS011;64036;48.266;14.192;2022-11-22T03:05:14;6.60;;;3.40;;
75456;SDS011;64036;48.266;14.192;2022-11-22T03:07:39;3.70;;;2.50;;
75456;SDS011;64036;48.266;14.192;2022-11-22T03:10:05;5.30;;;3.10;;
75456;SDS011;64036;48.266;14.192;2022-11-22T03:12:31;6.40;;;3.60;;
75456;SDS011;64036;48.266;14.192;2022-11-22T03:14:57;4.90;;;2.80;;
75456;SDS011;64036;48.266;14.192;2022-11-22T03:17:22;6.00;;;3.00;;
75456;SDS011;64036;48.266;14.192;2022-11-22T03:19:48;4.60;;;3.00;;
75456;SDS011;64036;48.266;14.192;2022-11-22T03:22:14;5.20;;;3.00;;
75456;SDS011;64036;48.266;14.192;2022-11-22T03:24:40;5.60;;;3.30;;
75456;SDS011;64036;48.266;14.192;2022-11-22T03:27:05;6.30;;;3.30;;
75456;SDS011;64036;48.266;14.192;2022-11-22T03:29:31;7.10;;;3.70;;
75456;SDS011;64036;48.266;14.192;2022-11-22T03:31:56;5.60;;;3.20;;
75456;SDS011;64036;48.266;14.192;2022-11-22T03:34:22;5.90;;;3.10;;
75456;SDS011;64036;48.266;14.192;2022-11-22T03:36:48;5.30;;;3.30;;
75456;SDS011;64036;48.266;14.192;2022-11-22T03:39:13;6.10;;;4.20;;
75456;SDS011;64036;48.266;14.192;2022-11-22T03:41:39;7.20;;;3.80;;
75456;SDS011;64036;48.266;14.192;2022-11-22T03:44:05;6.60;;;3.80;;
75456;SDS011;64036;48.266;14.192;2022-11-22T03:46:31;5.70;;;3.50;;
75456;SDS011;64036;48.266;14.192;2022-11-22T03:48:57;5.90;;;3.40;;
75456;SDS011;64036;48.266;14.192;2022-11-22T03:51:22;5.60;;;3.50;;
75456;SDS011;64036;48.266;14.192;2022-11-22T03:53:48;6.00;;;3.20;;
75456;SDS011;64036;48.266;14.192;2022-11-22T03:56:14;3.90;;;2.20;;
75456;SDS011;64036;48.266;14.192;2022-11-22T03:58:39;5.70;;;3.70;;
75456;SDS011;64036;48.266;14.192;2022-11-22T04:01:05;5.60;;;3.60;;
75456;SDS011;64036;48.266;14.192;2022-11-22T04:03:31;5.70;;;3.20;;
75456;SDS011;64036;48.266;14.192;2022-11-22T04:05:56;6.60;;;3.70;;
75456;SDS011;64036;48.266;14.192;2022-11-22T04:08:22;5.30;;;3.70;;
75456;SDS011;64036;48.266;14.192;2022-11-22T04:10:49;7.00;;;3.90;;
75456;SDS011;64036;48.266;14.192;2022-11-22T04:13:15;7.10;;;3.90;;
75456;SDS011;64036;48.266;14.192;2022-11-22T04:15:41;5.90;;;3.70;;
75456;SDS011;64036;48.266;14.192;2022-11-22T04:18:13;7.00;;;4.10;;
75456;SDS011;64036;48.266;14.192;2022-11-22T04:20:40;7.00;;;4.30;;
75456;SDS011;64036;48.266;14.192;2022-11-22T04:23:25;5.50;;;3.30;;
75456;SDS011;64036;48.266;14.192;2022-11-22T04:25:53;6.60;;;4.00;;
75456;SDS011;64036;48.266;14.192;2022-11-22T04:28:24;6.00;;;3.60;;
75456;SDS011;64036;48.266;14.192;2022-11-22T04:30:50;5.30;;;3.20;;
75456;SDS011;64036;48.266;14.192;2022-11-22T04:33:35;4.90;;;3.10;;
75456;SDS011;64036;48.266;14.192;2022-11-22T04:36:00;4.50;;;2.90;;
75456;SDS011;64036;48.266;14.192;2022-11-22T04:38:26;6.50;;;3.80;;
75456;SDS011;64036;48.266;14.192;2022-11-22T04:40:52;6.20;;;3.80;;
75456;SDS011;64036;48.266;14.192;2022-11-22T04:43:28;5.40;;;2.90;;
75456;SDS011;64036;48.266;14.192;2022-11-22T04:46:14;6.60;;;3.70;;
75456;SDS011;64036;48.266;14.192;2022-11-22T04:48:40;6.60;;;3.90;;
75456;SDS011;64036;48.266;14.192;2022-11-22T04:51:06;6.50;;;3.40;;
75456;SDS011;64036;48.266;14.192;2022-11-22T04:53:53;6.60;;;4.20;;
75456;SDS011;64036;48.266;14.192;2022-11-22T04:56:18;6.30;;;3.70;;
75456;SDS011;64036;48.266;14.192;2022-11-22T04:58:44;6.70;;;4.20;;
75456;SDS011;64036;48.266;14.192;2022-11-22T05:01:10;5.70;;;3.20;;
75456;SDS011;64036;48.266;14.192;2022-11-22T05:03:35;8.90;;;4.70;;
75456;SDS011;64036;48.266;14.192;2022-11-22T05:06:02;8.90;;;4.50;;
75456;SDS011;64036;48.266;14.192;2022-11-22T05:08:29;8.70;;;4.10;;
75456;SDS011;64036;48.266;14.192;2022-11-22T05:10:56;7.40;;;4.80;;
75456;SDS011;64036;48.266;14.192;2022-11-22T05:13:29;7.90;;;4.70;;
75456;SDS011;64036;48.266;14.192;2022-11-22T05:16:01;7.50;;;4.70;;
75456;SDS011;64036;48.266;14.192;2022-11-22T05:18:28;6.50;;;4.40;;
75456;SDS011;64036;48.266;14.192;2022-11-22T05:20:54;8.10;;;4.50;;
75456;SDS011;64036;48.266;14.192;2022-11-22T05:23:21;7.80;;;3.80;;
75456;SDS011;64036;48.266;14.192;2022-11-22T05:26:07;7.00;;;4.50;;
75456;SDS011;64036;48.266;14.192;2022-11-22T05:28:35;7.40;;;3.60;;
75456;SDS011;64036;48.266;14.192;2022-11-22T05:31:14;6.30;;;3.90;;
75456;SDS011;64036;48.266;14.192;2022-11-22T05:33:43;8.10;;;5.20;;
75456;SDS011;64036;48.266;14.192;2022-11-22T05:36:10;8.00;;;4.50;;
75456;SDS011;64036;48.266;14.192;2022-11-22T05:38:37;9.20;;;5.40;;
75456;SDS011;64036;48.266;14.192;2022-11-22T05:41:11;8.30;;;5.30;;
75456;SDS011;64036;48.266;14.192;2022-11-22T05:43:38;8.80;;;5.00;;
75456;SDS011;64036;48.266;14.192;2022-11-22T05:46:12;8.60;;;5.40;;
75456;SDS011;64036;48.266;14.192;2022-11-22T05:48:43;7.80;;;4.20;;
75456;SDS011;64036;48.266;14.192;2022-11-22T05:51:13;8.40;;;5.60;;
75456;SDS011;64036;48.266;14.192;2022-11-22T05:53:40;9.60;;;5.20;;
75456;SDS011;64036;48.266;14.192;2022-11-22T05:56:14;11.90;;;6.90;;
75456;SDS011;64036;48.266;14.192;2022-11-22T05:58:42;12.50;;;6.50;;
75456;SDS011;64036;48.266;14.192;2022-11-22T06:01:11;9.70;;;5.90;;
75456;SDS011;64036;48.266;14.192;2022-11-22T06:03:38;10.80;;;6.40;;
75456;SDS011;64036;48.266;14.192;2022-11-22T06:06:05;10.00;;;6.50;;
75456;SDS011;64036;48.266;14.192;2022-11-22T06:08:35;9.00;;;5.10;;
75456;SDS011;64036;48.266;14.192;2022-11-22T06:11:04;14.40;;;8.40;;
75456;SDS011;64036;48.266;14.192;2022-11-22T06:13:37;9.00;;;5.20;;
75456;SDS011;64036;48.266;14.192;2022-11-22T06:16:06;10.30;;;5.90;;
75456;SDS011;64036;48.266;14.192;2022-11-22T06:18:33;12.00;;;7.20;;
75456;SDS011;64036;48.266;14.192;2022-11-22T06:21:00;12.40;;;7.10;;
75456;SDS011;64036;48.266;14.192;2022-11-22T06:23:28;10.80;;;6.80;;
75456;SDS011;64036;48.266;14.192;2022-11-22T06:26:03;9.00;;;5.20;;
75456;SDS011;64036;48.266;14.192;2022-11-22T06:28:31;11.80;;;7.00;;
75456;SDS011;64036;48.266;14.192;2022-11-22T06:31:02;11.40;;;7.00;;
75456;SDS011;64036;48.266;14.192;2022-11-22T06:36:08;13.10;;;8.00;;
75456;SDS011;64036;48.266;14.192;2022-11-22T06:38:35;13.20;;;7.10;;
75456;SDS011;64036;48.266;14.192;2022-11-22T06:41:01;12.70;;;7.70;;
75456;SDS011;64036;48.266;14.192;2022-11-22T06:43:29;12.90;;;7.70;;
75456;SDS011;64036;48.266;14.192;2022-11-22T06:45:56;14.10;;;8.60;;
75456;SDS011;64036;48.266;14.192;2022-11-22T06:48:24;11.30;;;7.30;;
75456;SDS011;64036;48.266;14.192;2022-11-22T06:50:50;13.50;;;7.60;;
75456;SDS011;64036;48.266;14.192;2022-11-22T06:53:15;13.30;;;7.30;;
75456;SDS011;64036;48.266;14.192;2022-11-22T06:55:41;12.10;;;7.20;;
75456;SDS011;64036;48.266;14.192;2022-11-22T06:58:08;14.10;;;8.50;;
75456;SDS011;64036;48.266;14.192;2022-11-22T07:00:33;14.40;;;8.20;;
75456;SDS011;64036;48.266;14.192;2022-11-22T07:02:59;16.20;;;9.40;;
75456;SDS011;64036;48.266;14.192;2022-11-22T07:05:24;14.80;;;7.40;;
75456;SDS011;64036;48.266;14.192;2022-11-22T07:07:50;17.70;;;9.80;;
75456;SDS011;64036;48.266;14.192;2022-11-22T07:10:15;11.60;;;6.70;;
75456;SDS011;64036;48.266;14.192;2022-11-22T07:12:41;14.20;;;7.10;;
75456;SDS011;64036;48.266;14.192;2022-11-22T07:15:06;15.40;;;9.60;;
75456;SDS011;64036;48.266;14.192;2022-11-22T07:17:32;15.00;;;8.30;;
75456;SDS011;64036;48.266;14.192;2022-11-22T07:19:58;14.50;;;8.30;;
75456;SDS011;64036;48.266;14.192;2022-11-22T07:22:23;15.10;;;8.00;;
75456;SDS011;64036;48.266;14.192;2022-11-22T07:24:49;15.10;;;9.30;;
75456;SDS011;64036;48.266;14.192;2022-11-22T07:27:14;13.30;;;8.60;;
75456;SDS011;64036;48.266;14.192;2022-11-22T07:29:40;12.80;;;7.40;;
75456;SDS011;64036;48.266;14.192;2022-11-22T07:32:05;14.30;;;8.20;;
75456;SDS011;64036;48.266;14.192;2022-11-22T07:34:31;12.30;;;7.50;;
75456;SDS011;64036;48.266;14.192;2022-11-22T07:36:56;14.00;;;7.60;;
75456;SDS011;64036;48.266;14.192;2022-11-22T07:39:22;13.10;;;7.80;;
75456;SDS011;64036;48.266;14.192;2022-11-22T07:41:47;12.50;;;7.10;;
75456;SDS011;64036;48.266;14.192;2022-11-22T07:44:13;13.40;;;7.20;;
75456;SDS011;64036;48.266;14.192;2022-11-22T07:46:38;16.10;;;7.90;;
75456;SDS011;64036;48.266;14.192;2022-11-22T07:49:04;12.20;;;7.30;;
75456;SDS011;64036;48.266;14.192;2022-11-22T07:51:29;10.70;;;5.80;;
75456;SDS011;64036;48.266;14.192;2022-11-22T07:53:55;12.30;;;7.00;;
75456;SDS011;64036;48.266;14.192;2022-11-22T07:56:21;14.10;;;8.20;;
75456;SDS011;64036;48.266;14.192;2022-11-22T07:58:46;18.40;;;10.20;;
75456;SDS011;64036;48.266;14.192;2022-11-22T08:01:14;14.70;;;8.40;;
75456;SDS011;64036;48.266;14.192;2022-11-22T08:03:41;17.30;;;9.60;;
75456;SDS011;64036;48.266;14.192;2022-11-22T08:06:10;13.00;;;7.00;;
75456;SDS011;64036;48.266;14.192;2022-11-22T08:08:36;14.20;;;8.10;;
75456;SDS011;64036;48.266;14.192;2022-11-22T08:11:03;15.70;;;7.70;;
75456;SDS011;64036;48.266;14.192;2022-11-22T08:13:30;11.80;;;7.10;;
75456;SDS011;64036;48.266;14.192;2022-11-22T08:16:01;12.10;;;6.50;;
75456;SDS011;64036;48.266;14.192;2022-11-22T08:18:31;10.80;;;6.20;;
75456;SDS011;64036;48.266;14.192;2022-11-22T08:21:07;11.00;;;6.00;;
75456;SDS011;64036;48.266;14.192;2022-11-22T08:23:34;16.60;;;9.20;;
75456;SDS011;64036;48.266;14.192;2022-11-22T08:26:00;12.90;;;6.60;;
75456;SDS011;64036;48.266;14.192;2022-11-22T08:28:27;12.20;;;7.10;;
75456;SDS011;64036;48.266;14.192;2022-11-22T08:31:04;12.30;;;7.80;;
75456;SDS011;64036;48.266;14.192;2022-11-22T08:36:01;13.50;;;7.60;;
75456;SDS011;64036;48.266;14.192;2022-11-22T08:38:26;14.20;;;7.60;;
75456;SDS011;64036;48.266;14.192;2022-11-22T08:40:52;14.40;;;8.30;;
75456;SDS011;64036;48.266;14.192;2022-11-22T08:43:18;13.60;;;8.00;;
75456;SDS011;64036;48.266;14.192;2022-11-22T08:45:44;13.40;;;7.30;;
75456;SDS011;64036;48.266;14.192;2022-11-22T08:48:11;14.10;;;7.80;;
75456;SDS011;64036;48.266;14.192;2022-11-22T08:50:37;13.00;;;7.40;;
75456;SDS011;64036;48.266;14.192;2022-11-22T08:53:02;12.50;;;7.20;;
75456;SDS011;64036;48.266;14.192;2022-11-22T08:55:28;11.80;;;6.00;;
75456;SDS011;64036;48.266;14.192;2022-11-22T08:57:57;10.60;;;6.40;;
75456;SDS011;64036;48.266;14.192;2022-11-22T09:00:23;14.50;;;7.90;;
75456;SDS011;64036;48.266;14.192;2022-11-22T09:02:49;13.80;;;7.80;;
75456;SDS011;64036;48.266;14.192;2022-11-22T09:05:15;12.10;;;7.50;;
75456;SDS011;64036;48.266;14.192;2022-11-22T09:07:40;15.00;;;8.20;;
75456;SDS011;64036;48.266;14.192;2022-11-22T09:10:06;14.00;;;8.00;;
75456;SDS011;64036;48.266;14.192;2022-11-22T09:12:33;13.00;;;7.70;;
75456;SDS011;64036;48.266;14.192;2022-11-22T09:14:58;9.70;;;6.00;;
75456;SDS011;64036;48.266;14.192;2022-11-22T09:17:24;16.40;;;9.20;;
75456;SDS011;64036;48.266;14.192;2022-11-22T09:19:49;15.40;;;8.70;;
75456;SDS011;64036;48.266;14.192;2022-11-22T09:22:15;18.20;;;10.30;;
75456;SDS011;64036;48.266;14.192;2022-11-22T09:24:40;15.00;;;8.10;;
75456;SDS011;64036;48.266;14.192;2022-11-22T09:27:06;19.30;;;10.70;;
75456;SDS011;64036;48.266;14.192;2022-11-22T09:29:31;15.10;;;8.00;;
75456;SDS011;64036;48.266;14.192;2022-11-22T09:31:57;15.10;;;8.30;;
75456;SDS011;64036;48.266;14.192;2022-11-22T09:34:22;15.20;;;7.90;;
75456;SDS011;64036;48.266;14.192;2022-11-22T09:36:48;17.10;;;7.80;;
75456;SDS011;64036;48.266;14.192;2022-11-22T09:39:13;14.30;;;8.20;;
75456;SDS011;64036;48.266;14.192;2022-11-22T09:50:25;13.50;;;7.10;;
75456;SDS011;64036;48.266;14.192;2022-11-22T09:53:08;18.50;;;8.70;;
75456;SDS011;64036;48.266;14.192;2022-11-22T09:55:44;15.40;;;8.50;;
75456;SDS011;64036;48.266;14.192;2022-11-22T09:58:51;16.20;;;9.20;;
75456;SDS011;64036;48.266;14.192;2022-11-22T10:01:42;19.20;;;9.70;;
75456;SDS011;64036;48.266;14.192;2022-11-22T10:04:19;19.10;;;10.90;;
75456;SDS011;64036;48.266;14.192;2022-11-22T10:06:51;28.50;;;15.10;;
75456;SDS011;64036;48.266;14.192;2022-11-22T10:12:35;32.70;;;16.80;;
75456;SDS011;64036;48.266;14.192;2022-11-22T10:15:43;37.90;;;18.60;;
75456;SDS011;64036;48.266;14.192;2022-11-22T10:18:22;36.20;;;18.40;;
75456;SDS011;64036;48.266;14.192;2022-11-22T10:20:55;34.90;;;16.70;;
75456;SDS011;64036;48.266;14.192;2022-11-22T10:23:23;34.60;;;16.30;;
75456;SDS011;64036;48.266;14.192;2022-11-22T10:25:59;32.70;;;15.50;;
75456;SDS011;64036;48.266;14.192;2022-11-22T10:36:54;35.30;;;18.80;;
75456;SDS011;64036;48.266;14.192;2022-11-22T10:39:25;35.20;;;18.90;;
75456;SDS011;64036;48.266;14.192;2022-11-22T10:47:55;29.10;;;15.80;;
75456;SDS011;64036;48.266;14.192;2022-11-22T10:53:31;19.60;;;10.60;;
75456;SDS011;64036;48.266;14.192;2022-11-22T10:56:14;20.50;;;11.80;;
75456;SDS011;64036;48.266;14.192;2022-11-22T11:04:55;18.00;;;9.70;;
75456;SDS011;64036;48.266;14.192;2022-11-22T11:07:22;20.30;;;10.80;;
75456;SDS011;64036;48.266;14.192;2022-11-22T11:09:52;22.80;;;12.20;;
75456;SDS011;64036;48.266;14.192;2022-11-22T11:12:23;16.50;;;9.80;;
75456;SDS011;64036;48.266;14.192;2022-11-22T11:15:11;24.60;;;13.90;;
75456;SDS011;64036;48.266;14.192;2022-11-22T11:17:40;22.30;;;11.70;;
75456;SDS011;64036;48.266;14.192;2022-11-22T11:20:18;24.70;;;12.90;;
75456;SDS011;64036;48.266;14.192;2022-11-22T11:22:47;30.20;;;15.00;;
75456;SDS011;64036;48.266;14.192;2022-11-22T11:27:51;22.00;;;12.60;;
75456;SDS011;64036;48.266;14.192;2022-11-22T11:30:17;30.80;;;14.20;;
75456;SDS011;64036;48.266;14.192;2022-11-22T11:32:53;24.00;;;13.10;;
75456;SDS011;64036;48.266;14.192;2022-11-22T11:35:26;29.30;;;15.40;;
75456;SDS011;64036;48.266;14.192;2022-11-22T11:37:54;27.20;;;13.90;;
75456;SDS011;64036;48.266;14.192;2022-11-22T11:40:31;32.30;;;15.90;;
75456;SDS011;64036;48.266;14.192;2022-11-22T11:43:19;24.80;;;11.90;;
75456;SDS011;64036;48.266;14.192;2022-11-22T11:45:46;31.10;;;15.00;;
75456;SDS011;64036;48.266;14.192;2022-11-22T11:51:07;27.00;;;13.20;;
75456;SDS011;64036;48.266;14.192;2022-11-22T11:53:37;27.10;;;14.90;;
75456;SDS011;64036;48.266;14.192;2022-11-22T11:59:24;27.30;;;14.00;;
75456;SDS011;64036;48.266;14.192;2022-11-22T12:02:05;26.50;;;14.30;;
75456;SDS011;64036;48.266;14.192;2022-11-22T12:05:01;28.40;;;15.30;;
75456;SDS011;64036;48.266;14.192;2022-11-22T12:09:59;26.00;;;14.00;;
75456;SDS011;64036;48.266;14.192;2022-11-22T12:12:44;22.80;;;13.60;;
75456;SDS011;64036;48.266;14.192;2022-11-22T12:18:36;20.80;;;11.80;;
75456;SDS011;64036;48.266;14.192;2022-11-22T12:24:02;21.60;;;11.80;;
75456;SDS011;64036;48.266;14.192;2022-11-22T12:26:30;18.50;;;10.80;;
75456;SDS011;64036;48.266;14.192;2022-11-22T12:28:56;14.90;;;8.50;;
75456;SDS011;64036;48.266;14.192;2022-11-22T12:34:07;17.20;;;9.30;;
75456;SDS011;64036;48.266;14.192;2022-11-22T12:36:41;16.50;;;8.80;;
75456;SDS011;64036;48.266;14.192;2022-11-22T12:39:17;17.50;;;9.30;;
75456;SDS011;64036;48.266;14.192;2022-11-22T12:44:16;12.90;;;7.60;;
75456;SDS011;64036;48.266;14.192;2022-11-22T12:47:04;14.40;;;8.40;;
75456;SDS011;64036;48.266;14.192;2022-11-22T12:52:28;13.70;;;8.20;;
75456;SDS011;64036;48.266;14.192;2022-11-22T12:57:49;12.60;;;7.00;;
75456;SDS011;64036;48.266;14.192;2022-11-22T13:00:21;11.90;;;7.10;;
75456;SDS011;64036;48.266;14.192;2022-11-22T13:03:00;10.90;;;6.40;;
75456;SDS011;64036;48.266;14.192;2022-11-22T13:05:33;12.10;;;6.90;;
75456;SDS011;64036;48.266;14.192;2022-11-22T13:08:30;11.00;;;5.80;;
75456;SDS011;64036;48.266;14.192;2022-11-22T13:11:20;13.10;;;6.80;;
75456;SDS011;64036;48.266;14.192;2022-11-22T13:14:14;16.60;;;7.90;;
75456;SDS011;64036;48.266;14.192;2022-11-22T13:16:43;13.50;;;7.70;;
75456;SDS011;64036;48.266;14.192;2022-11-22T13:19:12;13.60;;;7.60;;
75456;SDS011;64036;48.266;14.192;2022-11-22T13:22:06;12.60;;;7.00;;
75456;SDS011;64036;48.266;14.192;2022-11-22T13:28:01;10.70;;;6.20;;
75456;SDS011;64036;48.266;14.192;2022-11-22T13:30:37;13.50;;;7.60;;
75456;SDS011;64036;48.266;14.192;2022-11-22T13:33:22;11.00;;;7.10;;
75456;SDS011;64036;48.266;14.192;2022-11-22T13:35:48;10.80;;;5.80;;
75456;SDS011;64036;48.266;14.192;2022-11-22T13:38:15;12.20;;;7.00;;
75456;SDS011;64036;48.266;14.192;2022-11-22T13:45:49;13.60;;;7.60;;
75456;SDS011;64036;48.266;14.192;2022-11-22T13:51:07;11.20;;;6.90;;
75456;SDS011;64036;48.266;14.192;2022-11-22T13:53:42;14.30;;;7.40;;
75456;SDS011;64036;48.266;14.192;2022-11-22T14:04:51;14.10;;;8.40;;
75456;SDS011;64036;48.266;14.192;2022-11-22T14:07:27;18.30;;;10.10;;
75456;SDS011;64036;48.266;14.192;2022-11-22T14:10:04;20.10;;;11.10;;
75456;SDS011;64036;48.266;14.192;2022-11-22T14:16:17;13.10;;;8.00;;
75456;SDS011;64036;48.266;14.192;2022-11-22T14:32:20;17.40;;;9.40;;
75456;SDS011;64036;48.266;14.192;2022-11-22T14:55:47;20.50;;;11.30;;
75456;SDS011;64036;48.266;14.192;2022-11-22T14:58:21;25.80;;;13.60;;
75456;SDS011;64036;48.266;14.192;2022-11-22T15:01:21;18.00;;;9.90;;
75456;SDS011;64036;48.266;14.192;2022-11-22T15:07:33;23.10;;;11.10;;
75456;SDS011;64036;48.266;14.192;2022-11-22T15:15:48;23.20;;;12.30;;
75456;SDS011;64036;48.266;14.192;2022-11-22T15:18:23;23.30;;;12.60;;
75456;SDS011;64036;48.266;14.192;2022-11-22T15:20:58;25.40;;;13.30;;
75456;SDS011;64036;48.266;14.192;2022-11-22T15:23:26;24.70;;;13.10;;
75456;SDS011;64036;48.266;14.192;2022-11-22T15:26:01;25.90;;;13.00;;
75456;SDS011;64036;48.266;14.192;2022-11-22T15:28:28;24.50;;;12.60;;
75456;SDS011;64036;48.266;14.192;2022-11-22T15:31:01;26.50;;;13.60;;
75456;SDS011;64036;48.266;14.192;2022-11-22T15:33:29;22.30;;;11.20;;
75456;SDS011;64036;48.266;14.192;2022-11-22T15:39:12;21.70;;;11.90;;
75456;SDS011;64036;48.266;14.192;2022-11-22T15:41:40;26.00;;;12.90;;
75456;SDS011;64036;48.266;14.192;2022-11-22T15:44:08;27.20;;;13.80;;
75456;SDS011;64036;48.266;14.192;2022-11-22T15:46:36;27.10;;;12.90;;
75456;SDS011;64036;48.266;14.192;2022-11-22T15:49:03;27.10;;;13.10;;
75456;SDS011;64036;48.266;14.192;2022-11-22T15:51:50;25.00;;;13.10;;
75456;SDS011;64036;48.266;14.192;2022-11-22T15:54:24;25.70;;;13.50;;
75456;SDS011;64036;48.266;14.192;2022-11-22T15:59:58;24.80;;;13.20;;
75456;SDS011;64036;48.266;14.192;2022-11-22T16:02:28;20.80;;;12.60;;
75456;SDS011;64036;48.266;14.192;2022-11-22T16:05:00;25.90;;;14.00;;
75456;SDS011;64036;48.266;14.192;2022-11-22T16:07:38;29.70;;;15.60;;
75456;SDS011;64036;48.266;14.192;2022-11-22T16:10:19;26.50;;;13.80;;
75456;SDS011;64036;48.266;14.192;2022-11-22T16:21:04;19.10;;;10.30;;
75456;SDS011;64036;48.266;14.192;2022-11-22T16:23:41;18.30;;;9.90;;
75456;SDS011;64036;48.266;14.192;2022-11-22T16:26:25;21.30;;;11.50;;
75456;SDS011;64036;48.266;14.192;2022-11-22T16:29:21;18.40;;;10.40;;
75456;SDS011;64036;48.266;14.192;2022-11-22T16:31:50;20.30;;;11.00;;
75456;SDS011;64036;48.266;14.192;2022-11-22T16:34:30;19.40;;;10.60;;
75456;SDS011;64036;48.266;14.192;2022-11-22T16:36:56;20.10;;;9.80;;
75456;SDS011;64036;48.266;14.192;2022-11-22T16:39:22;16.80;;;9.20;;
75456;SDS011;64036;48.266;14.192;2022-11-22T16:41:48;20.40;;;11.00;;
75456;SDS011;64036;48.266;14.192;2022-11-22T16:44:16;18.00;;;9.90;;
75456;SDS011;64036;48.266;14.192;2022-11-22T16:46:42;20.50;;;11.60;;
75456;SDS011;64036;48.266;14.192;2022-11-22T16:49:17;19.50;;;11.20;;
75456;SDS011;64036;48.266;14.192;2022-11-22T16:51:45;20.50;;;11.20;;
75456;SDS011;64036;48.266;14.192;2022-11-22T16:54:14;17.70;;;9.60;;
75456;SDS011;64036;48.266;14.192;2022-11-22T16:56:41;17.20;;;10.30;;
75456;SDS011;64036;48.266;14.192;2022-11-22T16:59:08;18.60;;;10.50;;
75456;SDS011;64036;48.266;14.192;2022-11-22T17:01:36;18.10;;;10.40;;
75456;SDS011;64036;48.266;14.192;2022-11-22T17:04:02;16.30;;;9.40;;
75456;SDS011;64036;48.266;14.192;2022-11-22T17:06:30;14.60;;;8.10;;
75456;SDS011;64036;48.266;14.192;2022-11-22T17:08:57;13.30;;;7.60;;
75456;SDS011;64036;48.266;14.192;2022-11-22T17:11:29;12.90;;;7.60;;
75456;SDS011;64036;48.266;14.192;2022-11-22T17:13:56;14.30;;;8.10;;
75456;SDS011;64036;48.266;14.192;2022-11-22T17:16:22;14.10;;;7.90;;
75456;SDS011;64036;48.266;14.192;2022-11-22T17:18:47;13.50;;;7.80;;